sensor_id;sensor_type;location;lat;lon;timestamp;P1;durP1;ratioP1;P2;durP2;ratioP2
5042;SDS011;2540;50.928;6.856;2024-02-28T00:01:31;52.93;;;23.13;;
5042;SDS011;2540;50.928;6.856;2024-02-28T00:03:56;43.90;;;22.00;;
5042;SDS011;2540;50.928;6.856;2024-02-28T00:06:21;46.47;;;22.00;;
5042;SDS011;2540;50.928;6.856;2024-02-28T00:08:47;48.83;;;22.53;;
5042;SDS011;2540;50.928;6.856;2024-02-28T00:11:12;47.00;;;23.50;;
5042;SDS011;2540;50.928;6.856;2024-02-28T00:13:37;46.17;;;22.23;;
5042;SDS011;2540;50.928;6.856;2024-02-28T00:16:03;46.20;;;20.87;;
5042;SDS011;2540;50.928;6.856;2024-02-28T00:18:28;44.50;;;21.27;;
5042;SDS011;2540;50.928;6.856;2024-02-28T00:20:55;45.33;;;22.10;;
5042;SDS011;2540;50.928;6.856;2024-02-28T00:23:20;54.70;;;25.03;;
5042;SDS011;2540;50.928;6.856;2024-02-28T00:25:46;63.77;;;28.43;;
5042;SDS011;2540;50.928;6.856;2024-02-28T00:28:11;57.93;;;25.47;;
5042;SDS011;2540;50.928;6.856;2024-02-28T00:30:36;70.20;;;27.30;;
5042;SDS011;2540;50.928;6.856;2024-02-28T00:33:02;64.80;;;28.17;;
5042;SDS011;2540;50.928;6.856;2024-02-28T00:35:27;52.67;;;25.30;;
5042;SDS011;2540;50.928;6.856;2024-02-28T00:37:53;63.63;;;27.63;;
5042;SDS011;2540;50.928;6.856;2024-02-28T00:40:19;56.87;;;25.17;;
5042;SDS011;2540;50.928;6.856;2024-02-28T00:42:44;66.03;;;26.43;;
5042;SDS011;2540;50.928;6.856;2024-02-28T00:45:10;59.17;;;24.30;;
5042;SDS011;2540;50.928;6.856;2024-02-28T00:47:35;58.63;;;26.77;;
5042;SDS011;2540;50.928;6.856;2024-02-28T00:50:01;53.30;;;24.30;;
5042;SDS011;2540;50.928;6.856;2024-02-28T00:52:28;52.33;;;23.57;;
5042;SDS011;2540;50.928;6.856;2024-02-28T00:54:54;51.27;;;23.60;;
5042;SDS011;2540;50.928;6.856;2024-02-28T00:57:19;48.73;;;23.50;;
5042;SDS011;2540;50.928;6.856;2024-02-28T00:59:44;55.57;;;24.00;;
5042;SDS011;2540;50.928;6.856;2024-02-28T01:02:10;54.73;;;25.37;;
5042;SDS011;2540;50.928;6.856;2024-02-28T01:04:35;60.93;;;26.57;;
5042;SDS011;2540;50.928;6.856;2024-02-28T01:07:00;64.03;;;26.67;;
5042;SDS011;2540;50.928;6.856;2024-02-28T01:09:26;62.83;;;28.37;;
5042;SDS011;2540;50.928;6.856;2024-02-28T01:11:51;71.30;;;30.00;;
5042;SDS011;2540;50.928;6.856;2024-02-28T01:14:16;57.33;;;25.37;;
5042;SDS011;2540;50.928;6.856;2024-02-28T01:16:41;59.00;;;26.23;;
5042;SDS011;2540;50.928;6.856;2024-02-28T01:19:07;65.83;;;26.97;;
5042;SDS011;2540;50.928;6.856;2024-02-28T01:21:32;56.13;;;25.67;;
5042;SDS011;2540;50.928;6.856;2024-02-28T01:23:58;56.87;;;26.63;;
5042;SDS011;2540;50.928;6.856;2024-02-28T01:26:23;51.97;;;25.43;;
5042;SDS011;2540;50.928;6.856;2024-02-28T01:28:49;52.10;;;24.40;;
5042;SDS011;2540;50.928;6.856;2024-02-28T01:31:14;60.63;;;26.10;;
5042;SDS011;2540;50.928;6.856;2024-02-28T01:33:40;57.27;;;26.20;;
5042;SDS011;2540;50.928;6.856;2024-02-28T01:36:08;48.87;;;24.87;;
5042;SDS011;2540;50.928;6.856;2024-02-28T01:38:34;60.93;;;27.93;;
5042;SDS011;2540;50.928;6.856;2024-02-28T01:40:59;64.57;;;28.73;;
5042;SDS011;2540;50.928;6.856;2024-02-28T01:43:24;60.97;;;26.17;;
5042;SDS011;2540;50.928;6.856;2024-02-28T01:45:50;60.03;;;28.20;;
5042;SDS011;2540;50.928;6.856;2024-02-28T01:48:16;59.80;;;27.47;;
5042;SDS011;2540;50.928;6.856;2024-02-28T01:50:41;62.20;;;28.37;;
5042;SDS011;2540;50.928;6.856;2024-02-28T01:53:06;61.00;;;27.13;;
5042;SDS011;2540;50.928;6.856;2024-02-28T01:55:38;54.10;;;26.37;;
5042;SDS011;2540;50.928;6.856;2024-02-28T01:58:03;62.57;;;27.93;;
5042;SDS011;2540;50.928;6.856;2024-02-28T02:00:35;59.30;;;26.73;;
5042;SDS011;2540;50.928;6.856;2024-02-28T02:03:01;58.97;;;26.77;;
5042;SDS011;2540;50.928;6.856;2024-02-28T02:05:26;64.03;;;29.50;;
5042;SDS011;2540;50.928;6.856;2024-02-28T02:07:51;65.30;;;30.47;;
5042;SDS011;2540;50.928;6.856;2024-02-28T02:10:17;64.57;;;29.73;;
5042;SDS011;2540;50.928;6.856;2024-02-28T02:12:42;64.30;;;28.50;;
5042;SDS011;2540;50.928;6.856;2024-02-28T02:15:08;66.07;;;28.63;;
5042;SDS011;2540;50.928;6.856;2024-02-28T02:17:33;66.93;;;29.03;;
5042;SDS011;2540;50.928;6.856;2024-02-28T02:19:58;68.90;;;31.17;;
5042;SDS011;2540;50.928;6.856;2024-02-28T02:22:25;64.90;;;29.93;;
5042;SDS011;2540;50.928;6.856;2024-02-28T02:24:52;71.23;;;29.80;;
5042;SDS011;2540;50.928;6.856;2024-02-28T02:27:17;64.77;;;29.50;;
5042;SDS011;2540;50.928;6.856;2024-02-28T02:29:43;67.63;;;31.27;;
5042;SDS011;2540;50.928;6.856;2024-02-28T02:32:08;72.27;;;30.93;;
5042;SDS011;2540;50.928;6.856;2024-02-28T02:34:33;73.43;;;33.77;;
5042;SDS011;2540;50.928;6.856;2024-02-28T02:36:59;71.37;;;29.60;;
5042;SDS011;2540;50.928;6.856;2024-02-28T02:39:24;68.47;;;31.10;;
5042;SDS011;2540;50.928;6.856;2024-02-28T02:41:49;75.80;;;32.63;;
5042;SDS011;2540;50.928;6.856;2024-02-28T02:44:15;77.10;;;31.97;;
5042;SDS011;2540;50.928;6.856;2024-02-28T02:46:41;64.77;;;27.93;;
5042;SDS011;2540;50.928;6.856;2024-02-28T02:49:06;72.40;;;31.20;;
5042;SDS011;2540;50.928;6.856;2024-02-28T02:51:31;81.50;;;30.77;;
5042;SDS011;2540;50.928;6.856;2024-02-28T02:53:56;72.40;;;31.60;;
5042;SDS011;2540;50.928;6.856;2024-02-28T02:56:22;76.00;;;32.30;;
5042;SDS011;2540;50.928;6.856;2024-02-28T02:58:47;76.20;;;32.83;;
5042;SDS011;2540;50.928;6.856;2024-02-28T03:01:13;74.43;;;31.53;;
5042;SDS011;2540;50.928;6.856;2024-02-28T03:03:38;72.30;;;32.50;;
5042;SDS011;2540;50.928;6.856;2024-02-28T03:06:04;75.93;;;32.60;;
5042;SDS011;2540;50.928;6.856;2024-02-28T03:08:30;75.97;;;31.63;;
5042;SDS011;2540;50.928;6.856;2024-02-28T03:10:56;78.20;;;33.80;;
5042;SDS011;2540;50.928;6.856;2024-02-28T03:13:21;87.50;;;35.10;;
5042;SDS011;2540;50.928;6.856;2024-02-28T03:15:47;87.27;;;35.53;;
5042;SDS011;2540;50.928;6.856;2024-02-28T03:18:13;88.23;;;35.00;;
5042;SDS011;2540;50.928;6.856;2024-02-28T03:20:38;92.37;;;36.53;;
5042;SDS011;2540;50.928;6.856;2024-02-28T03:23:04;72.97;;;32.23;;
5042;SDS011;2540;50.928;6.856;2024-02-28T03:25:31;91.53;;;34.37;;
5042;SDS011;2540;50.928;6.856;2024-02-28T03:27:56;93.13;;;36.07;;
5042;SDS011;2540;50.928;6.856;2024-02-28T03:30:22;86.33;;;34.70;;
5042;SDS011;2540;50.928;6.856;2024-02-28T03:32:47;101.00;;;37.67;;
5042;SDS011;2540;50.928;6.856;2024-02-28T03:35:13;87.73;;;35.90;;
5042;SDS011;2540;50.928;6.856;2024-02-28T03:37:38;90.50;;;37.27;;
5042;SDS011;2540;50.928;6.856;2024-02-28T03:40:04;80.23;;;33.67;;
5042;SDS011;2540;50.928;6.856;2024-02-28T03:42:29;107.13;;;40.03;;
5042;SDS011;2540;50.928;6.856;2024-02-28T03:44:55;89.20;;;38.17;;
5042;SDS011;2540;50.928;6.856;2024-02-28T03:47:20;87.00;;;33.97;;
5042;SDS011;2540;50.928;6.856;2024-02-28T03:49:46;103.50;;;36.50;;
5042;SDS011;2540;50.928;6.856;2024-02-28T03:52:11;94.53;;;35.37;;
5042;SDS011;2540;50.928;6.856;2024-02-28T03:54:36;100.73;;;36.77;;
5042;SDS011;2540;50.928;6.856;2024-02-28T03:57:02;83.00;;;34.10;;
5042;SDS011;2540;50.928;6.856;2024-02-28T03:59:27;89.23;;;36.60;;
5042;SDS011;2540;50.928;6.856;2024-02-28T04:01:52;93.13;;;37.00;;
5042;SDS011;2540;50.928;6.856;2024-02-28T04:04:18;87.90;;;36.80;;
5042;SDS011;2540;50.928;6.856;2024-02-28T04:06:43;86.17;;;35.20;;
5042;SDS011;2540;50.928;6.856;2024-02-28T04:09:08;95.93;;;36.27;;
5042;SDS011;2540;50.928;6.856;2024-02-28T04:11:33;95.20;;;37.60;;
5042;SDS011;2540;50.928;6.856;2024-02-28T04:16:31;87.30;;;37.00;;
5042;SDS011;2540;50.928;6.856;2024-02-28T04:18:57;111.57;;;38.57;;
5042;SDS011;2540;50.928;6.856;2024-02-28T04:21:22;108.07;;;39.80;;
5042;SDS011;2540;50.928;6.856;2024-02-28T04:23:47;102.63;;;38.00;;
5042;SDS011;2540;50.928;6.856;2024-02-28T04:26:12;108.60;;;38.67;;
5042;SDS011;2540;50.928;6.856;2024-02-28T04:28:38;113.20;;;39.17;;
5042;SDS011;2540;50.928;6.856;2024-02-28T04:31:03;98.40;;;36.30;;
5042;SDS011;2540;50.928;6.856;2024-02-28T04:33:28;104.67;;;37.10;;
5042;SDS011;2540;50.928;6.856;2024-02-28T04:35:54;103.00;;;38.47;;
5042;SDS011;2540;50.928;6.856;2024-02-28T04:38:19;98.00;;;37.43;;
5042;SDS011;2540;50.928;6.856;2024-02-28T04:40:44;112.63;;;37.70;;
5042;SDS011;2540;50.928;6.856;2024-02-28T04:43:10;96.77;;;36.43;;
5042;SDS011;2540;50.928;6.856;2024-02-28T04:45:35;99.23;;;36.27;;
5042;SDS011;2540;50.928;6.856;2024-02-28T04:48:00;108.90;;;36.63;;
5042;SDS011;2540;50.928;6.856;2024-02-28T04:50:26;116.37;;;37.73;;
5042;SDS011;2540;50.928;6.856;2024-02-28T04:52:51;100.53;;;38.37;;
5042;SDS011;2540;50.928;6.856;2024-02-28T04:55:16;124.00;;;39.80;;
5042;SDS011;2540;50.928;6.856;2024-02-28T04:57:42;121.33;;;40.17;;
5042;SDS011;2540;50.928;6.856;2024-02-28T05:00:07;118.13;;;39.37;;
5042;SDS011;2540;50.928;6.856;2024-02-28T05:02:33;113.70;;;41.27;;
5042;SDS011;2540;50.928;6.856;2024-02-28T05:04:58;111.60;;;40.07;;
5042;SDS011;2540;50.928;6.856;2024-02-28T05:07:23;129.60;;;41.23;;
5042;SDS011;2540;50.928;6.856;2024-02-28T05:09:49;123.33;;;42.83;;
5042;SDS011;2540;50.928;6.856;2024-02-28T05:12:15;111.10;;;37.97;;
5042;SDS011;2540;50.928;6.856;2024-02-28T05:14:40;110.13;;;38.50;;
5042;SDS011;2540;50.928;6.856;2024-02-28T05:17:05;114.73;;;38.77;;
5042;SDS011;2540;50.928;6.856;2024-02-28T05:19:31;121.33;;;39.00;;
5042;SDS011;2540;50.928;6.856;2024-02-28T05:21:56;113.07;;;39.50;;
5042;SDS011;2540;50.928;6.856;2024-02-28T05:24:21;117.30;;;38.37;;
5042;SDS011;2540;50.928;6.856;2024-02-28T05:26:47;112.73;;;38.83;;
5042;SDS011;2540;50.928;6.856;2024-02-28T05:29:12;118.90;;;39.50;;
5042;SDS011;2540;50.928;6.856;2024-02-28T05:31:37;120.70;;;40.73;;
5042;SDS011;2540;50.928;6.856;2024-02-28T05:34:03;125.73;;;39.87;;
5042;SDS011;2540;50.928;6.856;2024-02-28T05:36:29;130.93;;;40.97;;
5042;SDS011;2540;50.928;6.856;2024-02-28T05:38:55;120.17;;;41.07;;
5042;SDS011;2540;50.928;6.856;2024-02-28T05:41:22;125.93;;;39.23;;
5042;SDS011;2540;50.928;6.856;2024-02-28T05:43:48;122.03;;;40.10;;
5042;SDS011;2540;50.928;6.856;2024-02-28T05:46:14;127.20;;;41.97;;
5042;SDS011;2540;50.928;6.856;2024-02-28T05:48:43;130.07;;;40.03;;
5042;SDS011;2540;50.928;6.856;2024-02-28T05:51:09;117.43;;;40.27;;
5042;SDS011;2540;50.928;6.856;2024-02-28T05:53:35;113.97;;;35.40;;
5042;SDS011;2540;50.928;6.856;2024-02-28T05:56:04;112.13;;;36.90;;
5042;SDS011;2540;50.928;6.856;2024-02-28T05:58:30;116.03;;;37.37;;
5042;SDS011;2540;50.928;6.856;2024-02-28T06:00:56;119.43;;;36.63;;
5042;SDS011;2540;50.928;6.856;2024-02-28T06:03:21;118.27;;;37.13;;
5042;SDS011;2540;50.928;6.856;2024-02-28T06:05:47;115.33;;;36.23;;
5042;SDS011;2540;50.928;6.856;2024-02-28T06:08:12;121.80;;;38.70;;
5042;SDS011;2540;50.928;6.856;2024-02-28T06:10:38;129.53;;;40.20;;
5042;SDS011;2540;50.928;6.856;2024-02-28T06:13:03;127.40;;;39.37;;
5042;SDS011;2540;50.928;6.856;2024-02-28T06:15:28;121.87;;;37.47;;
5042;SDS011;2540;50.928;6.856;2024-02-28T06:17:57;120.10;;;38.50;;
5042;SDS011;2540;50.928;6.856;2024-02-28T06:20:25;125.77;;;41.97;;
5042;SDS011;2540;50.928;6.856;2024-02-28T06:22:50;131.13;;;45.43;;
5042;SDS011;2540;50.928;6.856;2024-02-28T06:25:15;118.47;;;39.57;;
5042;SDS011;2540;50.928;6.856;2024-02-28T06:27:45;132.33;;;40.27;;
5042;SDS011;2540;50.928;6.856;2024-02-28T06:30:10;102.60;;;34.77;;
5042;SDS011;2540;50.928;6.856;2024-02-28T06:32:37;105.70;;;36.03;;
5042;SDS011;2540;50.928;6.856;2024-02-28T06:35:03;107.53;;;36.60;;
5042;SDS011;2540;50.928;6.856;2024-02-28T06:37:29;106.00;;;36.03;;
5042;SDS011;2540;50.928;6.856;2024-02-28T06:39:54;112.50;;;36.40;;
5042;SDS011;2540;50.928;6.856;2024-02-28T06:42:19;101.77;;;37.60;;
5042;SDS011;2540;50.928;6.856;2024-02-28T06:44:45;104.67;;;35.23;;
5042;SDS011;2540;50.928;6.856;2024-02-28T06:47:10;107.80;;;36.63;;
5042;SDS011;2540;50.928;6.856;2024-02-28T06:49:35;97.10;;;34.43;;
5042;SDS011;2540;50.928;6.856;2024-02-28T06:52:00;102.63;;;35.30;;
5042;SDS011;2540;50.928;6.856;2024-02-28T06:54:26;105.20;;;36.87;;
5042;SDS011;2540;50.928;6.856;2024-02-28T06:56:52;106.93;;;35.03;;
5042;SDS011;2540;50.928;6.856;2024-02-28T06:59:17;98.77;;;34.07;;
5042;SDS011;2540;50.928;6.856;2024-02-28T07:01:43;80.83;;;31.43;;
5042;SDS011;2540;50.928;6.856;2024-02-28T07:04:08;96.60;;;35.30;;
5042;SDS011;2540;50.928;6.856;2024-02-28T07:06:33;100.17;;;35.90;;
5042;SDS011;2540;50.928;6.856;2024-02-28T07:08:59;89.10;;;32.53;;
5042;SDS011;2540;50.928;6.856;2024-02-28T07:11:24;94.03;;;34.50;;
5042;SDS011;2540;50.928;6.856;2024-02-28T07:13:49;92.87;;;32.70;;
5042;SDS011;2540;50.928;6.856;2024-02-28T07:16:14;93.40;;;30.97;;
5042;SDS011;2540;50.928;6.856;2024-02-28T07:18:40;97.63;;;34.00;;
5042;SDS011;2540;50.928;6.856;2024-02-28T07:21:05;92.37;;;33.57;;
5042;SDS011;2540;50.928;6.856;2024-02-28T07:23:31;103.80;;;36.70;;
5042;SDS011;2540;50.928;6.856;2024-02-28T07:25:57;102.10;;;35.30;;
5042;SDS011;2540;50.928;6.856;2024-02-28T07:28:22;104.13;;;35.53;;
5042;SDS011;2540;50.928;6.856;2024-02-28T07:30:48;96.40;;;34.20;;
5042;SDS011;2540;50.928;6.856;2024-02-28T07:33:13;90.83;;;33.43;;
5042;SDS011;2540;50.928;6.856;2024-02-28T07:35:45;90.20;;;33.57;;
5042;SDS011;2540;50.928;6.856;2024-02-28T07:38:14;93.30;;;32.03;;
5042;SDS011;2540;50.928;6.856;2024-02-28T07:40:41;90.47;;;33.50;;
5042;SDS011;2540;50.928;6.856;2024-02-28T07:43:06;95.10;;;34.50;;
5042;SDS011;2540;50.928;6.856;2024-02-28T07:45:31;89.40;;;32.73;;
5042;SDS011;2540;50.928;6.856;2024-02-28T07:47:57;101.63;;;33.43;;
5042;SDS011;2540;50.928;6.856;2024-02-28T07:50:22;97.07;;;33.57;;
5042;SDS011;2540;50.928;6.856;2024-02-28T07:52:47;97.47;;;34.27;;
5042;SDS011;2540;50.928;6.856;2024-02-28T07:55:13;99.87;;;34.80;;
5042;SDS011;2540;50.928;6.856;2024-02-28T07:57:38;100.10;;;33.63;;
5042;SDS011;2540;50.928;6.856;2024-02-28T08:00:04;93.43;;;31.67;;
5042;SDS011;2540;50.928;6.856;2024-02-28T08:02:29;94.60;;;31.47;;
5042;SDS011;2540;50.928;6.856;2024-02-28T08:04:55;86.50;;;31.10;;
5042;SDS011;2540;50.928;6.856;2024-02-28T08:07:21;105.13;;;34.33;;
5042;SDS011;2540;50.928;6.856;2024-02-28T08:09:46;101.17;;;32.43;;
5042;SDS011;2540;50.928;6.856;2024-02-28T08:12:13;102.00;;;33.20;;
5042;SDS011;2540;50.928;6.856;2024-02-28T08:14:38;100.57;;;35.40;;
5042;SDS011;2540;50.928;6.856;2024-02-28T08:17:03;99.33;;;33.20;;
5042;SDS011;2540;50.928;6.856;2024-02-28T08:19:29;94.60;;;33.87;;
5042;SDS011;2540;50.928;6.856;2024-02-28T08:21:54;104.30;;;36.87;;
5042;SDS011;2540;50.928;6.856;2024-02-28T08:24:20;106.47;;;34.50;;
5042;SDS011;2540;50.928;6.856;2024-02-28T08:26:45;99.87;;;33.67;;
5042;SDS011;2540;50.928;6.856;2024-02-28T08:29:10;97.57;;;35.57;;
5042;SDS011;2540;50.928;6.856;2024-02-28T08:31:45;87.87;;;32.77;;
5042;SDS011;2540;50.928;6.856;2024-02-28T08:34:10;107.50;;;35.40;;
5042;SDS011;2540;50.928;6.856;2024-02-28T08:36:35;103.03;;;34.70;;
5042;SDS011;2540;50.928;6.856;2024-02-28T08:39:01;86.47;;;32.37;;
5042;SDS011;2540;50.928;6.856;2024-02-28T08:41:29;86.87;;;31.63;;
5042;SDS011;2540;50.928;6.856;2024-02-28T08:43:55;105.10;;;36.97;;
5042;SDS011;2540;50.928;6.856;2024-02-28T08:46:20;100.00;;;33.70;;
5042;SDS011;2540;50.928;6.856;2024-02-28T08:48:45;102.57;;;32.03;;
5042;SDS011;2540;50.928;6.856;2024-02-28T08:51:11;101.13;;;37.27;;
5042;SDS011;2540;50.928;6.856;2024-02-28T08:53:36;109.27;;;35.77;;
5042;SDS011;2540;50.928;6.856;2024-02-28T08:56:02;91.70;;;32.97;;
5042;SDS011;2540;50.928;6.856;2024-02-28T08:58:27;93.77;;;32.67;;
5042;SDS011;2540;50.928;6.856;2024-02-28T09:00:52;99.83;;;32.10;;
5042;SDS011;2540;50.928;6.856;2024-02-28T09:03:18;98.50;;;34.03;;
5042;SDS011;2540;50.928;6.856;2024-02-28T09:05:46;108.60;;;35.20;;
5042;SDS011;2540;50.928;6.856;2024-02-28T09:08:12;94.90;;;34.47;;
5042;SDS011;2540;50.928;6.856;2024-02-28T09:10:38;88.57;;;29.87;;
5042;SDS011;2540;50.928;6.856;2024-02-28T09:13:03;106.00;;;35.37;;
5042;SDS011;2540;50.928;6.856;2024-02-28T09:15:28;95.87;;;34.20;;
5042;SDS011;2540;50.928;6.856;2024-02-28T09:17:54;95.97;;;34.43;;
5042;SDS011;2540;50.928;6.856;2024-02-28T09:20:19;90.80;;;33.80;;
5042;SDS011;2540;50.928;6.856;2024-02-28T09:22:44;95.20;;;34.60;;
5042;SDS011;2540;50.928;6.856;2024-02-28T09:25:10;90.40;;;31.53;;
5042;SDS011;2540;50.928;6.856;2024-02-28T09:27:35;103.30;;;33.40;;
5042;SDS011;2540;50.928;6.856;2024-02-28T09:30:01;111.63;;;35.40;;
5042;SDS011;2540;50.928;6.856;2024-02-28T09:32:27;80.47;;;29.73;;
5042;SDS011;2540;50.928;6.856;2024-02-28T09:34:52;106.33;;;34.63;;
5042;SDS011;2540;50.928;6.856;2024-02-28T09:37:26;93.43;;;33.10;;
5042;SDS011;2540;50.928;6.856;2024-02-28T09:39:53;89.00;;;32.30;;
5042;SDS011;2540;50.928;6.856;2024-02-28T09:42:18;98.63;;;33.00;;
5042;SDS011;2540;50.928;6.856;2024-02-28T09:44:43;89.70;;;31.17;;
5042;SDS011;2540;50.928;6.856;2024-02-28T09:47:09;91.57;;;30.40;;
5042;SDS011;2540;50.928;6.856;2024-02-28T09:49:36;89.90;;;31.70;;
5042;SDS011;2540;50.928;6.856;2024-02-28T09:52:02;82.03;;;30.50;;
5042;SDS011;2540;50.928;6.856;2024-02-28T09:54:28;87.27;;;30.73;;
5042;SDS011;2540;50.928;6.856;2024-02-28T09:56:54;87.73;;;31.57;;
5042;SDS011;2540;50.928;6.856;2024-02-28T09:59:20;92.63;;;33.00;;
5042;SDS011;2540;50.928;6.856;2024-02-28T10:01:47;85.40;;;29.43;;
5042;SDS011;2540;50.928;6.856;2024-02-28T10:04:20;92.33;;;33.07;;
5042;SDS011;2540;50.928;6.856;2024-02-28T10:06:46;79.77;;;31.13;;
5042;SDS011;2540;50.928;6.856;2024-02-28T10:09:14;77.10;;;29.10;;
5042;SDS011;2540;50.928;6.856;2024-02-28T10:11:41;75.97;;;31.23;;
5042;SDS011;2540;50.928;6.856;2024-02-28T10:14:08;85.63;;;32.63;;
5042;SDS011;2540;50.928;6.856;2024-02-28T10:16:33;76.73;;;29.90;;
5042;SDS011;2540;50.928;6.856;2024-02-28T10:18:59;75.27;;;28.27;;
5042;SDS011;2540;50.928;6.856;2024-02-28T10:21:24;76.93;;;28.63;;
5042;SDS011;2540;50.928;6.856;2024-02-28T10:23:51;74.97;;;29.90;;
5042;SDS011;2540;50.928;6.856;2024-02-28T10:26:16;76.63;;;28.80;;
5042;SDS011;2540;50.928;6.856;2024-02-28T10:28:41;69.87;;;27.97;;
5042;SDS011;2540;50.928;6.856;2024-02-28T10:31:08;76.23;;;27.73;;
5042;SDS011;2540;50.928;6.856;2024-02-28T10:33:35;65.90;;;27.67;;
5042;SDS011;2540;50.928;6.856;2024-02-28T10:36:01;65.17;;;25.93;;
5042;SDS011;2540;50.928;6.856;2024-02-28T10:38:27;55.07;;;23.90;;
5042;SDS011;2540;50.928;6.856;2024-02-28T10:40:53;67.33;;;25.97;;
5042;SDS011;2540;50.928;6.856;2024-02-28T10:43:19;70.20;;;27.77;;
5042;SDS011;2540;50.928;6.856;2024-02-28T10:45:44;72.67;;;27.77;;
5042;SDS011;2540;50.928;6.856;2024-02-28T10:48:11;70.10;;;27.47;;
5042;SDS011;2540;50.928;6.856;2024-02-28T10:50:39;87.93;;;31.37;;
5042;SDS011;2540;50.928;6.856;2024-02-28T10:53:04;84.70;;;31.20;;
5042;SDS011;2540;50.928;6.856;2024-02-28T10:55:33;86.00;;;31.60;;
5042;SDS011;2540;50.928;6.856;2024-02-28T10:58:03;74.70;;;29.37;;
5042;SDS011;2540;50.928;6.856;2024-02-28T11:00:32;70.13;;;26.93;;
5042;SDS011;2540;50.928;6.856;2024-02-28T11:02:59;69.97;;;28.07;;
5042;SDS011;2540;50.928;6.856;2024-02-28T11:05:34;75.53;;;28.63;;
5042;SDS011;2540;50.928;6.856;2024-02-28T11:08:01;68.63;;;25.80;;
5042;SDS011;2540;50.928;6.856;2024-02-28T11:10:31;71.20;;;26.80;;
5042;SDS011;2540;50.928;6.856;2024-02-28T11:12:58;60.80;;;24.83;;
5042;SDS011;2540;50.928;6.856;2024-02-28T11:15:24;66.13;;;25.60;;
5042;SDS011;2540;50.928;6.856;2024-02-28T11:17:51;65.67;;;24.40;;
5042;SDS011;2540;50.928;6.856;2024-02-28T11:20:16;58.13;;;23.73;;
5042;SDS011;2540;50.928;6.856;2024-02-28T11:22:42;69.17;;;26.43;;
5042;SDS011;2540;50.928;6.856;2024-02-28T11:25:08;70.27;;;25.27;;
5042;SDS011;2540;50.928;6.856;2024-02-28T11:27:33;58.00;;;22.20;;
5042;SDS011;2540;50.928;6.856;2024-02-28T11:29:59;61.87;;;24.17;;
5042;SDS011;2540;50.928;6.856;2024-02-28T11:32:25;59.90;;;24.27;;
5042;SDS011;2540;50.928;6.856;2024-02-28T11:34:50;56.77;;;23.27;;
5042;SDS011;2540;50.928;6.856;2024-02-28T11:37:16;57.17;;;22.67;;
5042;SDS011;2540;50.928;6.856;2024-02-28T11:39:46;52.53;;;22.03;;
5042;SDS011;2540;50.928;6.856;2024-02-28T11:42:14;62.20;;;23.90;;
5042;SDS011;2540;50.928;6.856;2024-02-28T11:44:41;59.40;;;22.80;;
5042;SDS011;2540;50.928;6.856;2024-02-28T11:47:09;59.07;;;22.20;;
5042;SDS011;2540;50.928;6.856;2024-02-28T11:49:37;51.30;;;21.43;;
5042;SDS011;2540;50.928;6.856;2024-02-28T11:52:06;59.00;;;23.33;;
5042;SDS011;2540;50.928;6.856;2024-02-28T11:54:32;60.90;;;22.97;;
5042;SDS011;2540;50.928;6.856;2024-02-28T11:57:03;49.33;;;20.60;;
5042;SDS011;2540;50.928;6.856;2024-02-28T11:59:29;53.23;;;21.60;;
5042;SDS011;2540;50.928;6.856;2024-02-28T12:01:54;61.03;;;21.10;;
5042;SDS011;2540;50.928;6.856;2024-02-28T12:04:20;47.80;;;19.87;;
5042;SDS011;2540;50.928;6.856;2024-02-28T12:06:46;65.47;;;21.80;;
5042;SDS011;2540;50.928;6.856;2024-02-28T12:09:11;46.67;;;20.77;;
5042;SDS011;2540;50.928;6.856;2024-02-28T12:11:40;52.40;;;20.53;;
5042;SDS011;2540;50.928;6.856;2024-02-28T12:14:08;40.27;;;18.23;;
5042;SDS011;2540;50.928;6.856;2024-02-28T12:16:35;54.43;;;20.97;;
5042;SDS011;2540;50.928;6.856;2024-02-28T12:19:02;53.70;;;21.03;;
5042;SDS011;2540;50.928;6.856;2024-02-28T12:21:28;60.37;;;22.77;;
5042;SDS011;2540;50.928;6.856;2024-02-28T12:23:56;50.70;;;19.53;;
5042;SDS011;2540;50.928;6.856;2024-02-28T12:26:21;52.83;;;22.13;;
5042;SDS011;2540;50.928;6.856;2024-02-28T12:28:47;46.30;;;20.00;;
5042;SDS011;2540;50.928;6.856;2024-02-28T12:31:12;55.73;;;21.10;;
5042;SDS011;2540;50.928;6.856;2024-02-28T12:33:38;41.60;;;18.70;;
5042;SDS011;2540;50.928;6.856;2024-02-28T12:36:04;50.33;;;18.50;;
5042;SDS011;2540;50.928;6.856;2024-02-28T12:38:29;46.17;;;19.40;;
5042;SDS011;2540;50.928;6.856;2024-02-28T12:40:55;59.60;;;19.93;;
5042;SDS011;2540;50.928;6.856;2024-02-28T12:43:21;55.83;;;20.50;;
5042;SDS011;2540;50.928;6.856;2024-02-28T12:45:46;50.10;;;19.60;;
5042;SDS011;2540;50.928;6.856;2024-02-28T12:48:11;41.30;;;18.10;;
5042;SDS011;2540;50.928;6.856;2024-02-28T12:50:37;41.30;;;17.40;;
5042;SDS011;2540;50.928;6.856;2024-02-28T12:53:02;46.30;;;18.47;;
5042;SDS011;2540;50.928;6.856;2024-02-28T12:55:28;42.03;;;16.47;;
5042;SDS011;2540;50.928;6.856;2024-02-28T12:57:53;44.80;;;18.00;;
5042;SDS011;2540;50.928;6.856;2024-02-28T13:00:19;42.07;;;16.97;;
5042;SDS011;2540;50.928;6.856;2024-02-28T13:02:44;49.57;;;18.77;;
5042;SDS011;2540;50.928;6.856;2024-02-28T13:05:11;50.80;;;19.40;;
5042;SDS011;2540;50.928;6.856;2024-02-28T13:07:37;41.07;;;16.90;;
5042;SDS011;2540;50.928;6.856;2024-02-28T13:10:03;37.67;;;15.40;;
5042;SDS011;2540;50.928;6.856;2024-02-28T13:12:30;46.70;;;18.00;;
5042;SDS011;2540;50.928;6.856;2024-02-28T13:14:55;34.37;;;15.03;;
5042;SDS011;2540;50.928;6.856;2024-02-28T13:17:21;41.30;;;16.40;;
5042;SDS011;2540;50.928;6.856;2024-02-28T13:19:46;42.40;;;17.53;;
5042;SDS011;2540;50.928;6.856;2024-02-28T13:22:12;36.90;;;16.20;;
5042;SDS011;2540;50.928;6.856;2024-02-28T13:24:37;39.13;;;16.93;;
5042;SDS011;2540;50.928;6.856;2024-02-28T13:27:02;45.03;;;17.80;;
5042;SDS011;2540;50.928;6.856;2024-02-28T13:29:28;46.00;;;17.87;;
5042;SDS011;2540;50.928;6.856;2024-02-28T13:31:54;38.60;;;15.30;;
5042;SDS011;2540;50.928;6.856;2024-02-28T13:34:19;38.23;;;16.30;;
5042;SDS011;2540;50.928;6.856;2024-02-28T13:36:44;34.13;;;14.83;;
5042;SDS011;2540;50.928;6.856;2024-02-28T13:39:10;36.13;;;15.50;;
5042;SDS011;2540;50.928;6.856;2024-02-28T13:41:41;47.60;;;18.57;;
5042;SDS011;2540;50.928;6.856;2024-02-28T13:44:06;37.50;;;16.77;;
5042;SDS011;2540;50.928;6.856;2024-02-28T13:46:32;39.47;;;16.37;;
5042;SDS011;2540;50.928;6.856;2024-02-28T13:48:58;35.43;;;15.80;;
5042;SDS011;2540;50.928;6.856;2024-02-28T13:51:23;42.60;;;16.27;;
5042;SDS011;2540;50.928;6.856;2024-02-28T13:53:49;32.60;;;15.17;;
5042;SDS011;2540;50.928;6.856;2024-02-28T13:56:17;31.63;;;14.83;;
5042;SDS011;2540;50.928;6.856;2024-02-28T13:58:42;38.10;;;15.43;;
5042;SDS011;2540;50.928;6.856;2024-02-28T14:01:07;35.00;;;14.93;;
5042;SDS011;2540;50.928;6.856;2024-02-28T14:03:33;40.13;;;17.27;;
5042;SDS011;2540;50.928;6.856;2024-02-28T14:05:59;37.87;;;16.50;;
5042;SDS011;2540;50.928;6.856;2024-02-28T14:08:24;35.73;;;13.80;;
5042;SDS011;2540;50.928;6.856;2024-02-28T14:10:49;31.73;;;15.30;;
5042;SDS011;2540;50.928;6.856;2024-02-28T14:13:15;41.03;;;16.23;;
5042;SDS011;2540;50.928;6.856;2024-02-28T14:15:43;31.67;;;14.33;;
5042;SDS011;2540;50.928;6.856;2024-02-28T14:18:08;36.37;;;14.63;;
5042;SDS011;2540;50.928;6.856;2024-02-28T14:20:34;32.13;;;13.97;;
5042;SDS011;2540;50.928;6.856;2024-02-28T14:22:59;40.20;;;13.73;;
5042;SDS011;2540;50.928;6.856;2024-02-28T14:25:24;31.97;;;13.13;;
5042;SDS011;2540;50.928;6.856;2024-02-28T14:27:50;37.23;;;15.17;;
5042;SDS011;2540;50.928;6.856;2024-02-28T14:30:15;33.57;;;15.33;;
5042;SDS011;2540;50.928;6.856;2024-02-28T14:32:41;26.60;;;12.17;;
5042;SDS011;2540;50.928;6.856;2024-02-28T14:35:08;26.20;;;12.50;;
5042;SDS011;2540;50.928;6.856;2024-02-28T14:37:37;30.23;;;14.13;;
5042;SDS011;2540;50.928;6.856;2024-02-28T14:40:06;25.57;;;12.20;;